createdAt,value
2023-05-20T00:01:51.498Z,11.12
2023-05-20T00:04:55.283Z,11.02
2023-05-20T00:07:59.628Z,10.92
2023-05-20T00:11:02.485Z,11.00
2023-05-20T00:14:04.972Z,11.02
2023-05-20T00:17:07.691Z,11.03
2023-05-20T00:20:10.589Z,10.89
2023-05-20T00:26:19.392Z,11.01
2023-05-20T00:29:23.709Z,11.07
2023-05-20T00:32:26.317Z,11.17
2023-05-20T00:35:29.312Z,11.19
2023-05-20T00:38:31.832Z,11.19
2023-05-20T00:41:35.451Z,11.15
2023-05-20T00:44:37.924Z,11.03
2023-05-20T00:47:40.774Z,11.02
2023-05-20T00:50:43.328Z,11.08
2023-05-20T00:53:46.257Z,10.97
2023-05-20T00:56:48.825Z,10.94
2023-05-20T00:59:51.617Z,10.92
2023-05-20T01:02:55.494Z,10.83
2023-05-20T01:05:58.450Z,10.85
2023-05-20T01:09:01.075Z,10.81
2023-05-20T01:12:18.846Z,10.84
2023-05-20T01:15:22.450Z,10.88
2023-05-20T01:18:26.664Z,11.01
2023-05-20T01:21:30.759Z,11.06
2023-05-20T01:24:35.394Z,10.98
2023-05-20T01:27:37.972Z,11.01
2023-05-20T01:30:47.312Z,11.01
2023-05-20T01:33:52.541Z,11.03
2023-05-20T01:36:57.394Z,10.91
2023-05-20T01:40:01.084Z,10.89
2023-05-20T01:43:03.893Z,10.85
2023-05-20T01:46:07.508Z,10.90
2023-05-20T01:49:10.484Z,10.83
2023-05-20T01:52:13.716Z,10.78
2023-05-20T01:55:16.841Z,10.69
2023-05-20T01:58:19.632Z,10.64
2023-05-20T02:04:25.826Z,10.57
2023-05-20T02:07:28.374Z,10.48
2023-05-20T02:10:31.118Z,10.39
2023-05-20T02:13:33.619Z,10.36
2023-05-20T02:16:36.812Z,10.28
2023-05-20T02:19:39.385Z,10.25
2023-05-20T02:22:42.264Z,10.19
2023-05-20T02:25:46.354Z,10.24
2023-05-20T02:28:50.801Z,10.24
2023-05-20T02:31:53.784Z,10.27
2023-05-20T02:34:57.031Z,10.24
2023-05-20T02:37:59.678Z,10.21
2023-05-20T02:41:04.525Z,10.24
2023-05-20T02:44:07.122Z,10.16
2023-05-20T02:47:11.594Z,10.37
2023-05-20T02:50:14.107Z,10.41
2023-05-20T02:53:19.223Z,10.57
2023-05-20T02:56:21.725Z,10.69
2023-05-20T02:59:24.513Z,10.82
2023-05-20T03:02:27.040Z,10.86
2023-05-20T03:05:29.944Z,10.76
2023-05-20T03:08:34.501Z,10.73
2023-05-20T03:11:37.897Z,10.63
2023-05-20T03:14:40.522Z,10.65
2023-05-20T03:17:43.423Z,10.65
2023-05-20T03:20:48.766Z,10.61
2023-05-20T03:23:53.457Z,10.65
2023-05-20T03:26:56.172Z,10.59
2023-05-20T03:29:59.109Z,10.67
2023-05-20T03:33:03.209Z,10.74
2023-05-20T03:36:06.700Z,10.82
2023-05-20T03:39:11.618Z,10.79
2023-05-20T03:42:14.920Z,10.74
2023-05-20T03:45:37.047Z,10.88
2023-05-20T03:48:40.169Z,10.97
2023-05-20T03:51:42.873Z,11.09
2023-05-20T03:54:46.291Z,11.24
2023-05-20T03:57:48.929Z,11.33
2023-05-20T04:00:51.808Z,11.40
2023-05-20T04:03:56.254Z,11.37
2023-05-20T04:07:00.652Z,11.51
2023-05-20T04:10:05.467Z,11.60
2023-05-20T04:13:08.449Z,11.80
2023-05-20T04:16:11.283Z,11.96
2023-05-20T04:19:13.866Z,12.19
2023-05-20T04:22:16.885Z,12.60
2023-05-20T04:25:20.034Z,12.80
2023-05-20T04:28:24.100Z,13.10
2023-05-20T04:31:26.848Z,13.35
2023-05-20T04:34:30.071Z,13.45
2023-05-20T04:37:32.864Z,13.45
2023-05-20T04:40:35.793Z,13.61
2023-05-20T04:43:40.333Z,13.56
2023-05-20T04:46:44.806Z,13.71
2023-05-20T04:49:47.915Z,13.71
2023-05-20T04:52:51.754Z,13.78
2023-05-20T04:55:56.974Z,13.92
2023-05-20T04:58:59.976Z,14.16
2023-05-20T05:02:02.650Z,14.32
2023-05-20T05:05:06.284Z,14.47
2023-05-20T05:08:09.740Z,14.42
2023-05-20T05:11:13.975Z,14.51
2023-05-20T05:14:17.167Z,14.48
2023-05-20T05:17:21.714Z,14.47
2023-05-20T05:20:24.216Z,14.58
2023-05-20T05:23:27.051Z,14.77
2023-05-20T05:26:29.520Z,14.98
2023-05-20T05:29:32.678Z,15.00
2023-05-20T05:32:37.271Z,15.07
2023-05-20T05:35:41.868Z,15.20
2023-05-20T05:38:44.592Z,15.29
2023-05-20T05:41:47.554Z,15.49
2023-05-20T05:44:50.427Z,15.62
2023-05-20T05:47:54.895Z,15.58
2023-05-20T05:50:57.556Z,15.75
2023-05-20T05:54:01.117Z,15.85
2023-05-20T05:57:06.371Z,15.99
2023-05-20T06:00:10.673Z,16.19
2023-05-20T06:03:20.524Z,16.35
2023-05-20T06:06:23.620Z,16.64
2023-05-20T06:09:26.235Z,16.82
2023-05-20T06:12:29.297Z,16.99
2023-05-20T06:15:32.003Z,17.14
2023-05-20T06:18:34.967Z,17.16
2023-05-20T06:21:39.396Z,17.41
2023-05-20T06:24:42.530Z,17.63
2023-05-20T06:27:45.191Z,17.87
2023-05-20T06:30:48.858Z,17.78
2023-05-20T06:33:51.431Z,17.64
2023-05-20T06:36:54.312Z,17.69
2023-05-20T06:39:56.841Z,17.80
2023-05-20T06:42:59.783Z,17.91
2023-05-20T06:46:03.569Z,18.01
2023-05-20T06:49:06.706Z,18.01
2023-05-20T06:52:09.373Z,18.29
2023-05-20T06:55:12.886Z,18.52
2023-05-20T06:58:15.618Z,18.60
2023-05-20T07:01:18.898Z,18.69
2023-05-20T07:04:21.756Z,18.75
2023-05-20T07:07:24.911Z,18.85
2023-05-20T07:10:27.529Z,19.19
2023-05-20T07:13:31.081Z,19.09
2023-05-20T07:16:35.294Z,19.40
2023-05-20T07:19:38.309Z,19.74
2023-05-20T07:22:40.878Z,20.01
2023-05-20T07:25:43.769Z,21.09
2023-05-20T07:28:47.257Z,21.39
2023-05-20T07:31:50.758Z,22.46
2023-05-20T07:34:53.302Z,23.14
2023-05-20T07:37:56.239Z,23.82
2023-05-20T07:40:58.681Z,24.48
2023-05-20T07:44:03.201Z,25.00
2023-05-20T07:47:06.098Z,25.00
2023-05-20T07:50:09.655Z,25.34
2023-05-20T07:53:12.300Z,25.93
2023-05-20T07:56:16.584Z,26.05
2023-05-20T07:59:19.096Z,26.14
2023-05-20T08:02:23.071Z,27.08
2023-05-20T08:05:26.681Z,26.77
2023-05-20T08:08:30.830Z,26.94
2023-05-20T08:11:34.074Z,27.66
2023-05-20T08:14:36.888Z,27.48
2023-05-20T08:17:39.801Z,27.07
2023-05-20T08:20:42.887Z,27.41
2023-05-20T08:23:45.924Z,27.93
2023-05-20T08:26:48.447Z,29.22
2023-05-20T08:29:51.896Z,27.42
2023-05-20T08:32:54.486Z,29.09
2023-05-20T08:35:57.348Z,28.95
2023-05-20T08:38:59.837Z,28.67
2023-05-20T08:42:06.920Z,28.01
2023-05-20T08:45:11.667Z,28.37
2023-05-20T08:48:16.713Z,29.55
2023-05-20T08:51:23.025Z,29.09
2023-05-20T08:54:44.664Z,29.43
2023-05-20T08:57:47.301Z,30.86
2023-05-20T09:00:51.258Z,30.01
2023-05-20T09:03:53.830Z,29.70
2023-05-20T09:06:56.687Z,29.89
2023-05-20T09:09:59.197Z,30.00
2023-05-20T09:13:05.085Z,30.11
2023-05-20T09:16:10.439Z,30.31
2023-05-20T09:19:13.357Z,31.41
2023-05-20T09:22:16.057Z,30.00
2023-05-20T09:25:23.711Z,30.11
2023-05-20T09:28:26.760Z,30.09
2023-05-20T09:31:35.807Z,30.37
2023-05-20T09:34:38.662Z,30.69
2023-05-20T09:37:43.274Z,30.36
2023-05-20T09:40:46.710Z,31.66
2023-05-20T09:43:50.351Z,29.68
2023-05-20T09:46:54.007Z,30.57
2023-05-20T09:49:57.347Z,29.95
2023-05-20T09:53:03.121Z,29.57
2023-05-20T09:56:06.297Z,30.64
2023-05-20T09:59:09.326Z,30.33
2023-05-20T10:02:12.213Z,29.20
2023-05-20T10:05:21.608Z,28.37
2023-05-20T10:08:31.434Z,28.01
2023-05-20T10:11:53.730Z,28.24
2023-05-20T10:15:04.787Z,28.48
2023-05-20T10:18:19.735Z,28.87
2023-05-20T10:21:26.600Z,28.58
2023-05-20T10:24:34.207Z,28.86
2023-05-20T10:27:44.597Z,29.12
2023-05-20T10:30:51.100Z,29.59
2023-05-20T10:33:54.117Z,30.05
2023-05-20T10:36:57.659Z,29.43
2023-05-20T10:40:06.999Z,28.63
2023-05-20T10:43:18.701Z,28.44
2023-05-20T10:46:32.642Z,28.44
2023-05-20T10:49:47.752Z,27.27
2023-05-20T10:52:50.360Z,28.56
2023-05-20T10:55:55.006Z,29.70
2023-05-20T10:58:58.459Z,30.33
2023-05-20T11:02:02.338Z,31.17
2023-05-20T11:05:06.521Z,31.79
2023-05-20T11:08:20.497Z,31.06
2023-05-20T11:11:30.795Z,30.96
2023-05-20T11:14:33.594Z,30.42
2023-05-20T11:17:36.189Z,31.51
2023-05-20T11:20:39.068Z,30.88
2023-05-20T11:23:42.195Z,31.63
2023-05-20T11:26:45.056Z,30.98
2023-05-20T11:29:50.353Z,29.81
2023-05-20T11:32:59.876Z,29.91
2023-05-20T11:36:03.590Z,29.89
2023-05-20T11:39:10.304Z,29.00
2023-05-20T11:42:15.288Z,28.09
2023-05-20T11:45:18.084Z,29.33
2023-05-20T11:48:21.504Z,28.08
2023-05-20T11:51:27.163Z,26.91
2023-05-20T11:54:29.659Z,28.01
2023-05-20T11:57:32.424Z,27.83
2023-05-20T12:00:49.415Z,27.57
2023-05-20T12:03:54.586Z,27.24
2023-05-20T12:06:57.116Z,27.27
2023-05-20T12:09:59.842Z,26.84
2023-05-20T12:13:03.325Z,26.82
2023-05-20T12:16:06.402Z,26.96
2023-05-20T12:19:09.414Z,27.11
2023-05-20T12:22:12.448Z,27.24
2023-05-20T12:25:16.476Z,27.51
2023-05-20T12:28:19.633Z,27.01
2023-05-20T12:31:22.145Z,26.57
2023-05-20T12:34:24.930Z,26.32
2023-05-20T12:37:27.431Z,26.39
2023-05-20T12:40:30.215Z,26.11
2023-05-20T12:43:33.647Z,26.43
2023-05-20T12:46:38.216Z,26.37
2023-05-20T12:49:42.562Z,26.22
2023-05-20T12:52:47.015Z,26.09
2023-05-20T12:55:49.817Z,25.99
2023-05-20T12:58:52.277Z,26.05
2023-05-20T13:01:55.048Z,26.00
2023-05-20T13:04:57.583Z,25.93
2023-05-20T13:08:00.635Z,25.70
2023-05-20T13:11:03.173Z,25.64
2023-05-20T13:14:05.927Z,25.46
2023-05-20T13:17:08.679Z,25.57
2023-05-20T13:20:12.064Z,25.63
2023-05-20T13:23:14.673Z,25.35
2023-05-20T13:26:18.734Z,25.60
2023-05-20T13:29:21.550Z,25.65
2023-05-20T13:32:24.290Z,25.39
2023-05-20T13:35:26.952Z,25.45
2023-05-20T13:38:29.725Z,25.34
2023-05-20T13:41:32.637Z,25.44
2023-05-20T13:44:35.510Z,25.27
2023-05-20T13:47:38.095Z,25.26
2023-05-20T13:50:41.168Z,25.18
2023-05-20T13:53:43.866Z,25.08
2023-05-20T13:56:46.689Z,25.10
2023-05-20T13:59:49.148Z,25.13
2023-05-20T14:02:51.973Z,25.01
2023-05-20T14:05:54.803Z,25.10
2023-05-20T14:08:57.494Z,25.05
2023-05-20T14:12:00.293Z,25.06
2023-05-20T14:15:02.839Z,25.00
2023-05-20T14:18:05.762Z,25.21
2023-05-20T14:21:08.259Z,25.30
2023-05-20T14:24:29.872Z,25.38
2023-05-20T14:27:32.467Z,25.17
2023-05-20T14:30:35.752Z,24.96
2023-05-20T14:33:38.499Z,24.89
2023-05-20T14:36:41.341Z,24.79
2023-05-20T14:39:43.822Z,24.55
2023-05-20T14:42:48.339Z,24.44
2023-05-20T14:45:52.667Z,24.42
2023-05-20T14:48:55.756Z,24.48
2023-05-20T14:51:58.336Z,24.43
2023-05-20T14:55:02.171Z,24.45
2023-05-20T14:58:04.633Z,24.53
2023-05-20T15:01:07.492Z,24.48
2023-05-20T15:04:10.281Z,24.43
2023-05-20T15:07:13.215Z,24.46
2023-05-20T15:10:16.460Z,24.43
2023-05-20T15:13:20.000Z,24.45
2023-05-20T15:16:24.456Z,24.59
2023-05-20T15:19:29.017Z,24.51
2023-05-20T15:22:31.983Z,24.47
2023-05-20T15:25:35.010Z,24.46
2023-05-20T15:28:38.381Z,24.27
2023-05-20T15:31:41.205Z,24.33
2023-05-20T15:34:43.677Z,24.18
2023-05-20T15:37:46.639Z,24.08
2023-05-20T15:40:50.325Z,24.01
2023-05-20T15:43:56.109Z,23.83
2023-05-20T15:46:58.753Z,23.77
2023-05-20T15:50:05.216Z,23.78
2023-05-20T15:53:08.764Z,23.76
2023-05-20T15:56:12.660Z,23.77
2023-05-20T15:59:15.145Z,23.74
2023-05-20T16:02:18.184Z,23.69
2023-05-20T16:05:24.612Z,23.69
2023-05-20T16:08:29.316Z,23.67
2023-05-20T16:11:33.826Z,23.71
2023-05-20T16:14:36.303Z,23.70
2023-05-20T16:17:39.117Z,23.63
2023-05-20T16:20:41.719Z,23.56
2023-05-20T16:23:44.509Z,23.47
2023-05-20T16:26:47.005Z,23.48
2023-05-20T16:29:50.197Z,23.43
2023-05-20T16:35:58.017Z,23.35
2023-05-20T16:39:01.525Z,23.31
2023-05-20T16:42:05.345Z,23.24
2023-05-20T16:45:08.521Z,23.18
2023-05-20T16:48:11.373Z,23.14
2023-05-20T16:51:13.915Z,23.04
2023-05-20T16:54:16.808Z,22.98
2023-05-20T16:57:22.572Z,22.86
2023-05-20T17:00:26.872Z,22.73
2023-05-20T17:03:29.452Z,22.61
2023-05-20T17:06:34.397Z,22.60
2023-05-20T17:09:37.547Z,22.53
2023-05-20T17:12:40.546Z,22.44
2023-05-20T17:15:43.094Z,22.42
2023-05-20T17:18:45.910Z,22.46
2023-05-20T17:21:48.703Z,22.45
2023-05-20T17:24:51.849Z,22.33
2023-05-20T17:27:54.497Z,22.37
2023-05-20T17:30:59.104Z,22.31
2023-05-20T17:34:01.837Z,22.18
2023-05-20T17:37:04.975Z,22.03
2023-05-20T17:40:08.867Z,21.87
2023-05-20T17:43:11.634Z,21.71
2023-05-20T17:46:14.237Z,21.54
2023-05-20T17:49:17.202Z,21.32
2023-05-20T17:52:19.712Z,21.17
2023-05-20T17:55:22.453Z,20.92
2023-05-20T17:58:25.205Z,20.82
2023-05-20T18:01:28.183Z,20.68
2023-05-20T18:04:31.131Z,20.51
2023-05-20T18:07:34.566Z,20.33
2023-05-20T18:10:37.893Z,20.20
2023-05-20T18:13:40.672Z,19.95
2023-05-20T18:16:43.502Z,19.84
2023-05-20T18:19:46.028Z,19.71
2023-05-20T18:22:50.577Z,19.59
2023-05-20T18:25:53.052Z,19.39
2023-05-20T18:28:56.040Z,19.27
2023-05-20T18:31:58.603Z,19.13
2023-05-20T18:35:01.446Z,19.08
2023-05-20T18:38:04.003Z,19.02
2023-05-20T18:41:06.839Z,18.99
2023-05-20T18:44:09.324Z,18.94
2023-05-20T18:47:12.282Z,18.87
2023-05-20T18:50:14.734Z,18.77
2023-05-20T18:53:18.768Z,18.69
2023-05-20T18:56:21.633Z,18.60
2023-05-20T18:59:25.229Z,18.47
2023-05-20T19:02:27.951Z,18.40
2023-05-20T19:05:31.114Z,18.33
2023-05-20T19:08:34.374Z,18.24
2023-05-20T19:11:37.191Z,18.17
2023-05-20T19:14:40.531Z,18.10
2023-05-20T19:17:43.478Z,18.02
2023-05-20T19:20:46.619Z,17.97
2023-05-20T19:23:49.898Z,17.88
2023-05-20T19:26:52.355Z,17.78
2023-05-20T19:29:55.360Z,17.76
2023-05-20T19:32:58.058Z,17.74
2023-05-20T19:36:01.074Z,17.70
2023-05-20T19:39:03.667Z,17.62
2023-05-20T19:42:06.674Z,17.52
2023-05-20T19:45:09.668Z,17.46
2023-05-20T19:48:12.653Z,17.35
2023-05-20T19:51:15.212Z,17.27
2023-05-20T19:54:18.019Z,17.27
2023-05-20T19:57:20.464Z,17.28
2023-05-20T20:00:23.524Z,17.29
2023-05-20T20:03:25.889Z,17.26
2023-05-20T20:06:28.697Z,17.24
2023-05-20T20:09:31.315Z,17.24
2023-05-20T20:12:34.895Z,17.24
2023-05-20T20:15:40.186Z,17.25
2023-05-20T20:18:43.318Z,17.23
2023-05-20T20:21:46.409Z,17.20
2023-05-20T20:24:51.595Z,17.07
2023-05-20T20:27:54.922Z,16.96
2023-05-20T20:30:57.788Z,16.78
2023-05-20T20:34:00.286Z,16.66
2023-05-20T20:37:03.864Z,16.47
2023-05-20T20:40:08.126Z,16.38
2023-05-20T20:43:20.314Z,16.32
2023-05-20T20:46:23.739Z,16.19
2023-05-20T20:49:28.456Z,16.06
2023-05-20T20:52:32.309Z,16.05
2023-05-20T20:55:35.313Z,16.01
2023-05-20T20:58:41.028Z,16.00
2023-05-20T21:01:44.901Z,16.00
2023-05-20T21:04:47.462Z,15.96
2023-05-20T21:07:52.678Z,15.85
2023-05-20T21:10:59.220Z,15.82
2023-05-20T21:14:02.173Z,15.74
2023-05-20T21:17:06.386Z,15.66
2023-05-20T21:20:09.938Z,15.61
2023-05-20T21:23:14.464Z,15.66
2023-05-20T21:26:17.295Z,15.55
2023-05-20T21:29:19.796Z,15.54
2023-05-20T21:32:22.682Z,15.57
2023-05-20T21:35:25.183Z,15.57
2023-05-20T21:38:27.958Z,15.50
2023-05-20T21:41:30.389Z,15.46
2023-05-20T21:44:34.871Z,15.42
2023-05-20T21:47:39.178Z,15.38
2023-05-20T21:50:42.063Z,15.34
2023-05-20T21:53:44.585Z,15.31
2023-05-20T21:56:47.500Z,15.30
2023-05-20T21:59:50.206Z,15.26
2023-05-20T22:02:53.138Z,15.37
2023-05-20T22:05:57.583Z,15.30
2023-05-20T22:12:04.479Z,15.29
2023-05-20T22:15:07.424Z,15.18
2023-05-20T22:18:12.378Z,15.09
2023-05-20T22:21:15.160Z,15.06
2023-05-20T22:24:18.133Z,15.02
2023-05-20T22:27:21.431Z,14.98
2023-05-20T22:30:24.377Z,14.96
2023-05-20T22:33:26.957Z,14.92
2023-05-20T22:36:33.967Z,14.93
2023-05-20T22:39:37.471Z,15.01
2023-05-20T22:42:40.261Z,15.08
2023-05-20T22:45:42.874Z,14.96
2023-05-20T22:48:45.635Z,14.87
2023-05-20T22:51:49.169Z,14.86
2023-05-20T22:54:52.005Z,14.81
2023-05-20T22:57:54.495Z,14.75
2023-05-20T23:00:57.283Z,14.73
2023-05-20T23:03:59.988Z,14.68
2023-05-20T23:07:02.842Z,14.70
2023-05-20T23:10:05.648Z,14.74
2023-05-20T23:13:10.346Z,14.77
2023-05-20T23:16:13.381Z,14.86
2023-05-20T23:19:16.835Z,14.79
2023-05-20T23:22:19.420Z,14.85
2023-05-20T23:25:22.238Z,14.84
2023-05-20T23:28:24.901Z,14.77
2023-05-20T23:31:30.090Z,14.80
2023-05-20T23:34:32.786Z,14.78
2023-05-20T23:37:35.675Z,14.71
2023-05-20T23:40:38.242Z,14.74
2023-05-20T23:43:41.240Z,14.79
2023-05-20T23:46:45.053Z,14.76
2023-05-20T23:49:49.517Z,14.87
2023-05-20T23:52:52.361Z,14.90
2023-05-20T23:55:55.159Z,14.83
2023-05-20T23:58:57.921Z,14.83
